Time;durP1;ratioP1;P1;durP2;ratioP2;P2;SDS_P1;SDS_P2;PMS_P1;PMS_P2;Temp;Humidity;BMP_temperature;BMP_pressure;BME280_temperature;BME280_humidity;BME280_pressure;Samples;Min_cycle;Max_cycle;Signal;HPM_P1;HPM_P2
2023/11/25 00:00:20;;;;;;;4.32;1.67;;;6.20;99.90;;;;;;5053388;28;20136;-77
2023/11/25 00:02:48;;;;;;;4.78;1.65;;;6.10;99.90;;;;;;5047816;28;20083;-76
2023/11/25 00:05:16;;;;;;;7.00;2.20;;;6.10;99.90;;;;;;5052543;28;20110;-77
2023/11/25 00:07:42;;;;;;;7.57;1.63;;;6.00;99.90;;;;;;5044230;28;20045;-77
2023/11/25 00:10:09;;;;;;;6.13;1.67;;;6.00;99.90;;;;;;5053085;28;20054;-77
2023/11/25 00:12:37;;;;;;;5.28;1.65;;;6.00;99.90;;;;;;5044954;28;20081;-78
2023/11/25 00:15:04;;;;;;;3.97;1.65;;;5.90;99.90;;;;;;5056256;28;20448;-78
2023/11/25 00:17:31;;;;;;;5.20;1.83;;;5.90;99.90;;;;;;5055496;28;20044;-76
2023/11/25 00:19:58;;;;;;;3.50;1.60;;;5.90;99.90;;;;;;5054398;28;20056;-77
2023/11/25 00:22:26;;;;;;;6.95;1.98;;;5.90;99.90;;;;;;5043470;28;20049;-77
2023/11/25 00:24:52;;;;;;;4.40;1.48;;;5.90;99.90;;;;;;5045881;28;20045;-76
2023/11/25 00:27:19;;;;;;;6.38;1.75;;;5.90;99.90;;;;;;5042270;28;20493;-75
2023/11/25 00:29:46;;;;;;;8.20;1.90;;;5.90;99.90;;;;;;5044793;28;20049;-76
2023/11/25 00:32:12;;;;;;;7.13;2.00;;;6.00;99.90;;;;;;5051917;28;20083;-77
2023/11/25 00:34:39;;;;;;;3.33;1.67;;;6.00;99.90;;;;;;5045525;28;20581;-76
2023/11/25 00:37:08;;;;;;;5.13;1.83;;;6.00;99.90;;;;;;5051523;28;20059;-77
2023/11/25 00:39:35;;;;;;;6.18;1.75;;;6.00;99.90;;;;;;5049213;28;20076;-77
2023/11/25 00:42:02;;;;;;;5.70;2.10;;;6.00;99.90;;;;;;5045143;28;20081;-77
2023/11/25 00:44:29;;;;;;;3.85;1.60;;;6.00;99.90;;;;;;5044953;28;20071;-77
2023/11/25 00:46:56;;;;;;;5.75;1.67;;;6.00;99.90;;;;;;5052424;28;20132;-77
2023/11/25 00:49:22;;;;;;;8.73;1.77;;;6.00;99.90;;;;;;5045294;28;20045;-77
2023/11/25 00:51:49;;;;;;;7.95;2.10;;;6.00;99.90;;;;;;5044617;28;20107;-76
2023/11/25 00:54:17;;;;;;;5.57;1.60;;;6.00;99.90;;;;;;5047536;28;20037;-77
2023/11/25 00:56:43;;;;;;;7.32;1.40;;;6.00;99.90;;;;;;5052391;28;20589;-77
2023/11/25 00:59:11;;;;;;;4.28;1.50;;;6.00;99.90;;;;;;5048215;28;20086;-76
2023/11/25 01:01:38;;;;;;;3.45;1.30;;;6.00;99.90;;;;;;5047743;28;20473;-78
2023/11/25 01:04:05;;;;;;;8.45;1.88;;;6.10;99.90;;;;;;5060652;28;20053;-78
2023/11/25 01:06:32;;;;;;;3.70;1.60;;;6.10;99.90;;;;;;5049353;28;20053;-76
2023/11/25 01:08:58;;;;;;;4.95;1.80;;;6.10;99.90;;;;;;5049286;28;20137;-76
2023/11/25 01:11:25;;;;;;;9.68;1.92;;;6.00;99.90;;;;;;5049310;28;20045;-76
2023/11/25 01:13:52;;;;;;;3.30;1.38;;;6.00;99.90;;;;;;5046366;28;20136;-76
2023/11/25 01:16:19;;;;;;;5.60;1.60;;;6.00;99.90;;;;;;5051686;28;20045;-77
2023/11/25 01:18:45;;;;;;;5.00;2.08;;;6.00;99.90;;;;;;5062590;28;20068;-76
2023/11/25 01:21:13;;;;;;;4.28;1.90;;;6.00;99.90;;;;;;5047512;28;20049;-76
2023/11/25 01:23:40;;;;;;;6.70;1.80;;;5.90;99.90;;;;;;5048399;28;20468;-76
2023/11/25 01:26:06;;;;;;;2.30;1.50;;;5.90;99.90;;;;;;5042430;28;20049;-77
2023/11/25 01:28:33;;;;;;;7.22;1.83;;;5.90;99.90;;;;;;5052755;28;20084;-76
2023/11/25 01:31:00;;;;;;;5.30;1.40;;;5.90;99.90;;;;;;5057244;28;20049;-76
2023/11/25 01:33:26;;;;;;;3.90;1.80;;;5.90;99.90;;;;;;5051260;28;20044;-76
2023/11/25 01:35:53;;;;;;;3.92;1.55;;;5.90;99.90;;;;;;5044092;28;20081;-76
2023/11/25 01:38:20;;;;;;;3.15;1.90;;;5.90;99.90;;;;;;5055990;28;20064;-76
2023/11/25 01:40:46;;;;;;;5.43;1.58;;;5.90;99.90;;;;;;5055023;28;20118;-76
2023/11/25 01:43:14;;;;;;;3.88;1.60;;;5.90;99.90;;;;;;5055609;28;20117;-76
2023/11/25 01:45:42;;;;;;;4.88;1.35;;;5.90;99.90;;;;;;5047697;28;20045;-76
2023/11/25 01:48:09;;;;;;;4.32;1.33;;;5.90;99.90;;;;;;5048503;28;20053;-77
2023/11/25 01:50:38;;;;;;;5.35;1.48;;;5.90;99.90;;;;;;5056083;28;20076;-76
2023/11/25 01:53:05;;;;;;;4.60;1.52;;;5.90;99.90;;;;;;5050021;28;20107;-76
2023/11/25 01:55:33;;;;;;;4.78;1.30;;;5.90;99.90;;;;;;5054558;28;20049;-76
2023/11/25 01:58:00;;;;;;;3.30;1.50;;;5.90;99.90;;;;;;5052805;28;20096;-76
2023/11/25 02:00:28;;;;;;;5.15;1.52;;;5.90;99.90;;;;;;5051084;28;20132;-76
2023/11/25 02:02:57;;;;;;;3.67;1.48;;;5.90;99.90;;;;;;5045471;28;20046;-76
2023/11/25 02:05:24;;;;;;;1.85;1.20;;;5.80;99.90;;;;;;5056178;28;20076;-76
2023/11/25 02:07:51;;;;;;;8.50;1.50;;;5.80;99.90;;;;;;5060122;28;20088;-76
2023/11/25 02:10:19;;;;;;;5.75;1.58;;;5.80;99.90;;;;;;5049611;28;20044;-77
2023/11/25 02:12:46;;;;;;;2.88;1.50;;;5.80;99.90;;;;;;5047379;28;20436;-78
2023/11/25 02:15:14;;;;;;;4.97;1.50;;;5.80;99.90;;;;;;5050631;28;20079;-77
2023/11/25 02:17:42;;;;;;;5.57;1.50;;;5.80;99.90;;;;;;5046289;28;20048;-77
2023/11/25 02:20:10;;;;;;;3.20;1.58;;;5.80;99.90;;;;;;5050668;28;20049;-77
2023/11/25 02:22:37;;;;;;;3.65;1.35;;;5.70;99.90;;;;;;5049204;28;20045;-77
2023/11/25 02:25:05;;;;;;;3.55;1.63;;;5.70;99.90;;;;;;5049393;28;20060;-76
2023/11/25 02:27:33;;;;;;;4.88;1.10;;;5.70;99.90;;;;;;5053048;28;20462;-77
2023/11/25 02:29:59;;;;;;;8.55;1.60;;;5.70;99.90;;;;;;5046983;28;20540;-77
2023/11/25 02:32:26;;;;;;;4.32;1.60;;;5.70;99.90;;;;;;5047811;28;20140;-77
2023/11/25 02:34:53;;;;;;;9.95;1.85;;;5.70;99.90;;;;;;5046771;28;20521;-77
2023/11/25 02:37:20;;;;;;;3.88;1.38;;;5.70;99.90;;;;;;5053037;28;20467;-76
2023/11/25 02:39:46;;;;;;;3.30;2.05;;;5.70;99.90;;;;;;5046009;28;20041;-77
2023/11/25 02:42:13;;;;;;;4.22;1.50;;;5.70;99.90;;;;;;5056095;28;20149;-77
2023/11/25 02:44:40;;;;;;;6.35;1.85;;;5.60;99.90;;;;;;5049624;28;20051;-77
2023/11/25 02:47:08;;;;;;;7.45;1.55;;;5.70;99.90;;;;;;5046681;28;20053;-77
2023/11/25 02:49:35;;;;;;;7.10;1.38;;;5.70;99.90;;;;;;5049560;28;20048;-76
2023/11/25 02:52:02;;;;;;;6.47;1.48;;;5.70;99.90;;;;;;5051705;28;20061;-77
2023/11/25 02:54:29;;;;;;;5.32;1.83;;;5.70;99.90;;;;;;5044564;28;20041;-77
2023/11/25 02:56:55;;;;;;;2.80;1.17;;;5.70;99.90;;;;;;5045373;28;20081;-76
2023/11/25 02:59:22;;;;;;;3.20;1.48;;;5.70;99.90;;;;;;5053981;28;20465;-77
2023/11/25 03:01:51;;;;;;;3.47;1.40;;;5.70;99.90;;;;;;5052998;28;20552;-77
2023/11/25 03:04:19;;;;;;;6.55;1.23;;;5.70;99.90;;;;;;5046042;28;20063;-77
2023/11/25 03:06:48;;;;;;;6.63;1.20;;;5.70;99.90;;;;;;5046661;28;20053;-77
2023/11/25 03:09:15;;;;;;;4.20;1.30;;;5.70;99.90;;;;;;5053222;28;20053;-76
2023/11/25 03:11:41;;;;;;;6.90;1.75;;;5.70;99.90;;;;;;5045852;28;20045;-76
2023/11/25 03:14:08;;;;;;;2.95;1.17;;;5.70;99.90;;;;;;5054649;28;20077;-76
2023/11/25 03:16:35;;;;;;;5.80;1.30;;;5.70;99.90;;;;;;5046570;28;20127;-77
2023/11/25 03:19:03;;;;;;;3.25;1.50;;;5.70;99.90;;;;;;5050379;28;20052;-77
2023/11/25 03:21:30;;;;;;;6.63;1.85;;;5.70;99.90;;;;;;5048380;28;20553;-76
2023/11/25 03:23:58;;;;;;;3.67;1.30;;;5.70;99.90;;;;;;5050443;28;20131;-76
2023/11/25 03:26:24;;;;;;;4.05;1.45;;;5.70;99.90;;;;;;5048500;28;20102;-76
2023/11/25 03:28:51;;;;;;;7.82;1.42;;;5.70;99.90;;;;;;5049626;28;20049;-78
2023/11/25 03:31:18;;;;;;;3.40;1.25;;;5.70;99.90;;;;;;5053098;28;20049;-76
2023/11/25 03:33:45;;;;;;;5.10;1.35;;;5.70;99.90;;;;;;5048512;28;20047;-79
2023/11/25 03:36:13;;;;;;;6.15;1.13;;;5.70;99.90;;;;;;5045811;28;20398;-76
2023/11/25 03:38:40;;;;;;;7.15;1.35;;;5.80;99.90;;;;;;5047873;28;20080;-77
2023/11/25 03:41:08;;;;;;;5.30;1.20;;;5.80;99.90;;;;;;5048067;28;20053;-76
2023/11/25 03:43:35;;;;;;;3.42;1.17;;;5.80;99.90;;;;;;5045842;28;20491;-76
2023/11/25 03:46:04;;;;;;;4.20;1.30;;;5.80;99.90;;;;;;5051540;28;20049;-76
2023/11/25 03:48:32;;;;;;;5.63;1.17;;;5.80;99.90;;;;;;5046279;28;20492;-77
2023/11/25 03:50:59;;;;;;;5.70;1.48;;;5.80;99.90;;;;;;5051276;28;20049;-77
2023/11/25 03:53:27;;;;;;;6.55;1.70;;;5.70;99.90;;;;;;5040668;28;20563;-76
2023/11/25 03:55:54;;;;;;;4.72;1.65;;;5.80;99.90;;;;;;5050617;28;20049;-77
2023/11/25 03:58:21;;;;;;;4.35;1.42;;;5.80;99.90;;;;;;5047360;28;20485;-77
2023/11/25 04:00:47;;;;;;;5.00;1.23;;;5.80;99.90;;;;;;5041255;28;20045;-76
2023/11/25 04:03:14;;;;;;;5.35;1.45;;;5.80;99.90;;;;;;5053882;28;20140;-75
2023/11/25 04:05:41;;;;;;;4.78;1.63;;;5.80;99.90;;;;;;5049805;28;20105;-76
2023/11/25 04:08:07;;;;;;;3.35;1.30;;;5.80;99.90;;;;;;5043713;28;20057;-76
2023/11/25 04:10:34;;;;;;;4.88;1.48;;;5.80;99.90;;;;;;5046185;28;20049;-76
2023/11/25 04:13:01;;;;;;;5.93;1.52;;;5.80;99.90;;;;;;5057363;28;20438;-77
2023/11/25 04:15:28;;;;;;;5.18;1.40;;;5.80;99.90;;;;;;5045060;28;20100;-77
2023/11/25 04:17:54;;;;;;;5.60;1.58;;;5.80;99.90;;;;;;5051074;28;20127;-76
2023/11/25 04:20:25;;;;;;;6.45;1.35;;;5.80;99.90;;;;;;5046576;28;20137;-76
2023/11/25 04:22:54;;;;;;;6.15;1.38;;;5.80;99.90;;;;;;5050267;28;20052;-76
2023/11/25 04:25:21;;;;;;;6.10;1.58;;;5.80;99.90;;;;;;5048163;28;20053;-76
2023/11/25 04:27:48;;;;;;;2.20;1.30;;;5.80;99.90;;;;;;5047452;28;20134;-76
2023/11/25 04:30:18;;;;;;;5.15;1.25;;;5.80;99.90;;;;;;5044787;28;20049;-76
2023/11/25 04:32:46;;;;;;;10.85;1.67;;;5.80;99.90;;;;;;5051307;28;20114;-76
2023/11/25 04:35:14;;;;;;;7.47;2.22;;;5.80;99.90;;;;;;5049807;28;20151;-76
2023/11/25 04:37:45;;;;;;;7.55;2.40;;;5.80;99.90;;;;;;5048266;28;20089;-76
2023/11/25 04:40:12;;;;;;;4.70;1.75;;;5.80;99.90;;;;;;5046206;28;20056;-77
2023/11/25 04:42:43;;;;;;;6.75;1.60;;;5.80;99.90;;;;;;5046330;28;20386;-76
2023/11/25 04:45:18;;;;;;;6.38;1.85;;;5.80;99.90;;;;;;5041695;28;20598;-76
2023/11/25 04:47:47;;;;;;;4.25;1.38;;;5.80;99.90;;;;;;5045830;28;20366;-77
2023/11/25 04:50:16;;;;;;;7.15;1.52;;;5.80;99.90;;;;;;5054699;28;20053;-76
2023/11/25 04:52:43;;;;;;;9.32;1.80;;;5.80;99.90;;;;;;5039937;28;20045;-76
2023/11/25 04:55:14;;;;;;;5.88;1.52;;;5.80;99.90;;;;;;5050509;28;20060;-77
2023/11/25 04:57:43;;;;;;;4.18;1.60;;;5.70;99.90;;;;;;5040146;28;20052;-77
2023/11/25 05:00:11;;;;;;;8.63;1.67;;;5.70;99.90;;;;;;5045638;28;20049;-76
2023/11/25 05:02:39;;;;;;;7.72;2.08;;;5.70;99.90;;;;;;5047144;28;20052;-76
2023/11/25 05:05:07;;;;;;;4.80;1.58;;;5.60;99.90;;;;;;5048527;28;20057;-77
2023/11/25 05:07:34;;;;;;;4.53;1.30;;;5.60;99.90;;;;;;5053186;28;20044;-76
2023/11/25 05:10:05;;;;;;;3.63;1.92;;;5.60;99.90;;;;;;5048942;28;20060;-76
2023/11/25 05:12:32;;;;;;;6.28;1.80;;;5.60;99.90;;;;;;5048798;28;20527;-76
2023/11/25 05:14:59;;;;;;;3.97;1.70;;;5.60;99.90;;;;;;5047234;28;20467;-76
2023/11/25 05:17:26;;;;;;;8.38;1.80;;;5.60;99.90;;;;;;5049025;28;20088;-76
2023/11/25 05:19:53;;;;;;;4.30;1.30;;;5.50;99.90;;;;;;5048519;28;20100;-76
2023/11/25 05:22:21;;;;;;;5.63;1.70;;;5.50;99.90;;;;;;5057826;28;20073;-76
2023/11/25 05:24:48;;;;;;;7.65;1.70;;;5.50;99.90;;;;;;5049797;28;20144;-76
2023/11/25 05:27:14;;;;;;;6.57;1.48;;;5.60;99.90;;;;;;5049982;28;20064;-77
2023/11/25 05:29:41;;;;;;;5.57;1.55;;;5.60;99.90;;;;;;5051100;28;20139;-76
2023/11/25 05:32:08;;;;;;;5.88;2.47;;;5.50;99.90;;;;;;5048823;28;20049;-77
2023/11/25 05:34:36;;;;;;;3.47;1.67;;;5.50;99.90;;;;;;5051106;28;20500;-76
2023/11/25 05:37:03;;;;;;;4.85;1.30;;;5.50;99.90;;;;;;5054723;28;20041;-76
2023/11/25 05:39:30;;;;;;;6.25;1.50;;;5.50;99.90;;;;;;5046204;28;20045;-76
2023/11/25 05:41:56;;;;;;;6.72;1.92;;;5.50;99.90;;;;;;5049577;28;20044;-76
2023/11/25 05:44:25;;;;;;;4.95;1.92;;;5.50;99.90;;;;;;5053740;28;20057;-76
2023/11/25 05:46:55;;;;;;;5.20;1.95;;;5.50;99.90;;;;;;5050392;28;20053;-76
2023/11/25 05:49:22;;;;;;;5.45;1.88;;;5.50;99.90;;;;;;5057550;28;20076;-77
2023/11/25 05:51:51;;;;;;;6.43;1.67;;;5.50;99.90;;;;;;5051228;28;20106;-76
2023/11/25 05:54:18;;;;;;;7.05;1.40;;;5.40;99.90;;;;;;5048917;28;20060;-76
2023/11/25 05:56:45;;;;;;;3.35;1.23;;;5.40;99.90;;;;;;5046598;28;20489;-76
2023/11/25 05:59:12;;;;;;;6.57;1.67;;;5.40;99.90;;;;;;5053257;28;20049;-77
2023/11/25 06:01:39;;;;;;;8.15;2.05;;;5.40;99.90;;;;;;5051106;28;20083;-77
2023/11/25 06:04:05;;;;;;;6.15;1.80;;;5.30;99.90;;;;;;5059793;28;20051;-77
2023/11/25 06:06:32;;;;;;;3.08;1.38;;;5.30;99.90;;;;;;5048903;28;20048;-78
2023/11/25 06:08:59;;;;;;;7.75;1.73;;;5.30;99.90;;;;;;5050080;28;20080;-76
2023/11/25 06:11:27;;;;;;;5.80;1.63;;;5.20;99.90;;;;;;5047088;28;20121;-77
2023/11/25 06:13:56;;;;;;;8.63;1.85;;;5.20;99.90;;;;;;5048350;28;20076;-76
2023/11/25 06:16:24;;;;;;;3.05;1.58;;;5.20;99.90;;;;;;5067360;28;20045;-77
2023/11/25 06:18:52;;;;;;;4.85;1.60;;;5.20;99.90;;;;;;5048951;28;20046;-76
2023/11/25 06:21:19;;;;;;;4.13;1.50;;;5.20;99.90;;;;;;5046964;28;20075;-76
2023/11/25 06:23:48;;;;;;;7.45;1.77;;;5.20;99.90;;;;;;5061627;28;20049;-76
2023/11/25 06:26:15;;;;;;;9.88;2.40;;;5.20;99.90;;;;;;5061286;28;20131;-77
2023/11/25 06:28:43;;;;;;;6.95;1.38;;;5.20;99.90;;;;;;5050264;28;20072;-76
2023/11/25 06:31:15;;;;;;;4.93;1.70;;;5.20;99.90;;;;;;5054530;28;20067;-76
2023/11/25 06:33:42;;;;;;;3.75;1.40;;;5.20;99.90;;;;;;5050195;28;20048;-78
2023/11/25 06:36:10;;;;;;;5.88;1.70;;;5.10;99.90;;;;;;5046611;28;20076;-78
2023/11/25 06:38:37;;;;;;;10.45;2.17;;;5.10;99.90;;;;;;5050020;28;20067;-75
2023/11/25 06:41:04;;;;;;;6.32;1.80;;;5.10;99.90;;;;;;5050380;28;20045;-77
2023/11/25 06:43:31;;;;;;;5.68;1.80;;;5.10;99.90;;;;;;5044873;28;20041;-75
2023/11/25 06:45:59;;;;;;;3.90;1.58;;;5.10;99.90;;;;;;5051497;28;20056;-76
2023/11/25 06:48:26;;;;;;;2.85;1.90;;;5.10;99.90;;;;;;5056585;28;20049;-76
2023/11/25 06:50:58;;;;;;;4.00;1.88;;;5.10;99.90;;;;;;5049373;28;20048;-77
2023/11/25 06:53:24;;;;;;;4.22;1.70;;;5.10;99.90;;;;;;5050848;28;20220;-76
2023/11/25 06:55:51;;;;;;;5.85;1.80;;;5.10;99.90;;;;;;5049844;28;20477;-78
2023/11/25 06:58:18;;;;;;;4.18;1.90;;;5.10;99.90;;;;;;5047944;28;20106;-76
2023/11/25 07:00:45;;;;;;;4.65;1.92;;;5.10;99.90;;;;;;5049166;28;20103;-76
2023/11/25 07:03:12;;;;;;;3.88;1.95;;;5.10;99.90;;;;;;5051000;28;20049;-76
2023/11/25 07:05:38;;;;;;;7.57;2.33;;;5.10;99.90;;;;;;5046920;28;20054;-77
2023/11/25 07:08:05;;;;;;;8.07;2.13;;;5.10;99.90;;;;;;5051374;28;20052;-76
2023/11/25 07:10:34;;;;;;;6.95;2.40;;;5.10;99.90;;;;;;5046944;28;20050;-76
2023/11/25 07:13:03;;;;;;;6.07;2.22;;;5.10;99.90;;;;;;5050203;28;20048;-76
2023/11/25 07:15:29;;;;;;;7.03;2.33;;;5.10;99.90;;;;;;5062168;28;20049;-76
2023/11/25 07:17:57;;;;;;;8.55;2.70;;;5.00;99.90;;;;;;5050879;28;20136;-76
2023/11/25 07:20:24;;;;;;;7.00;3.42;;;5.00;99.90;;;;;;5048086;28;20122;-76
2023/11/25 07:22:51;;;;;;;9.18;3.42;;;5.00;99.90;;;;;;5048637;28;20041;-76
2023/11/25 07:25:18;;;;;;;8.90;3.30;;;4.90;99.90;;;;;;5046636;28;20053;-76
2023/11/25 07:27:46;;;;;;;8.70;3.45;;;4.90;99.90;;;;;;5050199;28;20443;-77
2023/11/25 07:30:15;;;;;;;11.98;3.83;;;4.90;99.90;;;;;;5054156;28;20057;-78
2023/11/25 07:32:43;;;;;;;6.32;3.13;;;4.90;99.90;;;;;;5047843;28;20049;-77
2023/11/25 07:35:11;;;;;;;7.78;3.50;;;4.80;99.90;;;;;;5052036;28;20067;-77
2023/11/25 07:37:38;;;;;;;12.23;4.97;;;4.70;99.90;;;;;;5051245;28;20107;-79
2023/11/25 07:40:16;;;;;;;14.10;6.32;;;4.70;99.90;;;;;;5046494;28;20045;-77
2023/11/25 07:42:48;;;;;;;10.50;5.60;;;4.60;99.90;;;;;;5048599;28;20052;-77
2023/11/25 07:45:16;;;;;;;10.82;4.50;;;4.60;99.90;;;;;;5045220;28;20045;-79
2023/11/25 07:47:44;;;;;;;11.60;5.05;;;4.50;99.90;;;;;;5044199;28;20059;-79
2023/11/25 07:50:11;;;;;;;12.88;6.10;;;4.50;99.90;;;;;;5050728;28;20045;-79
2023/11/25 07:52:38;;;;;;;9.57;4.82;;;4.40;99.90;;;;;;5046761;28;21226;-79
2023/11/25 07:55:06;;;;;;;14.65;6.68;;;4.40;99.90;;;;;;5047304;28;20531;-78
2023/11/25 07:57:33;;;;;;;14.52;6.82;;;4.40;99.90;;;;;;5049214;28;20045;-78
2023/11/25 08:00:00;;;;;;;17.25;7.57;;;4.30;99.90;;;;;;5048086;28;20102;-77
2023/11/25 08:02:27;;;;;;;10.07;5.70;;;4.30;99.90;;;;;;5049155;28;20044;-77
2023/11/25 08:04:54;;;;;;;11.80;6.20;;;4.20;99.90;;;;;;5045519;28;20107;-77
2023/11/25 08:07:23;;;;;;;15.65;6.57;;;4.20;99.90;;;;;;5045963;28;20136;-78
2023/11/25 08:09:51;;;;;;;11.23;6.38;;;4.20;99.90;;;;;;5048810;28;20055;-77
2023/11/25 08:12:18;;;;;;;11.57;5.47;;;4.10;99.90;;;;;;5046270;28;20515;-80
2023/11/25 08:14:47;;;;;;;15.00;8.45;;;4.10;99.90;;;;;;5068399;28;20060;-81
2023/11/25 08:17:14;;;;;;;15.68;6.47;;;4.10;99.90;;;;;;5043746;28;20119;-77
2023/11/25 08:19:41;;;;;;;12.90;6.95;;;4.10;99.90;;;;;;5047694;28;20059;-77
2023/11/25 08:22:07;;;;;;;13.65;5.63;;;4.00;99.90;;;;;;5051136;28;20048;-77
2023/11/25 08:24:34;;;;;;;10.48;4.97;;;4.00;99.90;;;;;;5049324;28;20111;-77
2023/11/25 08:27:02;;;;;;;12.98;5.82;;;4.00;99.90;;;;;;5048941;28;20091;-78
2023/11/25 08:29:28;;;;;;;12.40;6.55;;;4.00;99.90;;;;;;5044886;28;20049;-80
2023/11/25 08:31:55;;;;;;;11.52;5.22;;;4.00;99.90;;;;;;5052025;28;20081;-77
2023/11/25 08:34:22;;;;;;;10.40;4.30;;;3.90;99.90;;;;;;5051007;28;20045;-78
2023/11/25 08:36:55;;;;;;;7.43;4.05;;;3.90;99.90;;;;;;5049751;28;20053;-79
2023/11/25 08:39:25;;;;;;;11.57;4.75;;;3.90;99.90;;;;;;5053760;28;20138;-78
2023/11/25 08:41:54;;;;;;;9.02;4.20;;;3.90;99.90;;;;;;5049931;28;20075;-76
2023/11/25 08:44:21;;;;;;;8.20;3.35;;;4.00;99.90;;;;;;5067524;28;20049;-77
2023/11/25 08:46:49;;;;;;;7.93;3.08;;;4.00;99.90;;;;;;5053999;28;20136;-77
2023/11/25 08:49:18;;;;;;;6.97;3.10;;;4.00;99.90;;;;;;5052744;28;20075;-78
2023/11/25 08:51:49;;;;;;;11.02;3.00;;;4.10;99.90;;;;;;5060238;28;20048;-79
2023/11/25 08:54:25;;;;;;;13.80;3.25;;;4.10;99.90;;;;;;5050819;28;20049;-79
2023/11/25 08:56:54;;;;;;;10.52;3.05;;;4.10;99.90;;;;;;5053625;28;20447;-77
2023/11/25 08:59:21;;;;;;;5.78;2.88;;;4.10;99.90;;;;;;5057473;28;20060;-79
2023/11/25 09:01:48;;;;;;;11.52;6.78;;;4.20;99.90;;;;;;5062031;28;20103;-79
2023/11/25 09:04:19;;;;;;;21.77;9.18;;;4.20;99.90;;;;;;5062285;28;20416;-79
2023/11/25 09:06:47;;;;;;;39.35;19.48;;;4.30;99.90;;;;;;5063576;28;20080;-78
2023/11/25 09:09:19;;;;;;;25.33;10.50;;;4.30;99.90;;;;;;5053763;28;20041;-77
2023/11/25 09:11:48;;;;;;;9.80;4.18;;;4.40;99.90;;;;;;5060036;28;20112;-77
2023/11/25 09:14:16;;;;;;;13.07;4.28;;;4.50;99.90;;;;;;5047500;28;20064;-76
2023/11/25 09:16:43;;;;;;;14.18;4.43;;;4.60;99.90;;;;;;5059279;28;20564;-76
2023/11/25 09:19:11;;;;;;;8.52;3.92;;;4.70;99.90;;;;;;5058065;28;20044;-77
2023/11/25 09:21:38;;;;;;;8.40;3.60;;;4.90;99.90;;;;;;5054769;28;20048;-77
2023/11/25 09:24:05;;;;;;;6.20;2.83;;;5.00;99.90;;;;;;5051327;28;20044;-76
2023/11/25 09:26:33;;;;;;;12.73;4.85;;;5.10;99.90;;;;;;5054157;28;20133;-77
2023/11/25 09:29:00;;;;;;;12.68;4.22;;;5.10;99.90;;;;;;5057624;28;20044;-78
2023/11/25 09:31:27;;;;;;;10.68;3.22;;;5.20;99.90;;;;;;5051564;28;20042;-77
2023/11/25 09:33:54;;;;;;;14.18;3.78;;;5.20;99.90;;;;;;5056496;28;20041;-78
2023/11/25 09:36:22;;;;;;;8.93;2.47;;;5.20;99.90;;;;;;5050144;28;20057;-77
2023/11/25 09:38:49;;;;;;;10.45;2.67;;;5.20;99.90;;;;;;5054837;28;20041;-78
2023/11/25 09:41:17;;;;;;;7.47;3.17;;;5.20;99.90;;;;;;5054226;28;20073;-78
2023/11/25 09:43:45;;;;;;;10.35;3.05;;;5.20;99.90;;;;;;5084349;28;20494;-79
2023/11/25 09:46:13;;;;;;;10.50;3.60;;;5.20;99.90;;;;;;5053600;28;20102;-79
2023/11/25 09:48:40;;;;;;;4.45;2.80;;;5.20;99.90;;;;;;5062088;28;20045;-79
2023/11/25 09:51:13;;;;;;;6.25;2.70;;;5.20;99.90;;;;;;5051860;28;20049;-79
2023/11/25 09:53:42;;;;;;;9.25;2.33;;;5.20;99.90;;;;;;5063655;28;20049;-80
2023/11/25 09:56:11;;;;;;;11.68;2.50;;;5.20;99.90;;;;;;5057827;28;20109;-79
2023/11/25 09:58:38;;;;;;;5.38;2.03;;;5.20;99.90;;;;;;5059771;28;20049;-78
2023/11/25 10:01:06;;;;;;;11.50;2.70;;;5.20;99.90;;;;;;5056799;28;20319;-79
2023/11/25 10:03:34;;;;;;;7.60;2.67;;;5.20;99.90;;;;;;5055870;28;20042;-79
2023/11/25 10:06:02;;;;;;;11.02;2.95;;;5.20;99.90;;;;;;5061804;28;20078;-79
2023/11/25 10:08:29;;;;;;;8.65;2.35;;;5.20;99.90;;;;;;5058379;28;20475;-77
2023/11/25 10:11:07;;;;;;;7.88;2.80;;;5.20;99.90;;;;;;5054741;28;20049;-80
2023/11/25 10:13:37;;;;;;;10.60;2.88;;;5.20;99.90;;;;;;5054250;28;20136;-76
2023/11/25 10:16:05;;;;;;;7.20;2.40;;;5.20;99.90;;;;;;5051353;28;20048;-75
2023/11/25 10:18:36;;;;;;;5.97;2.08;;;5.30;99.90;;;;;;5048596;28;20841;-79
2023/11/25 10:21:07;;;;;;;7.15;2.92;;;5.30;99.90;;;;;;5060753;28;20076;-78
2023/11/25 10:23:36;;;;;;;11.55;3.20;;;5.30;99.90;;;;;;5053719;28;20144;-79
2023/11/25 10:26:03;;;;;;;8.82;2.60;;;5.40;99.90;;;;;;5062547;28;20044;-82
2023/11/25 10:28:35;;;;;;;9.70;2.40;;;5.50;99.90;;;;;;5059763;28;20075;-80
2023/11/25 10:31:05;;;;;;;5.50;2.47;;;5.60;99.90;;;;;;5064369;28;20045;-79
2023/11/25 10:33:33;;;;;;;5.53;1.85;;;5.70;99.90;;;;;;5064208;28;20053;-80
2023/11/25 10:36:01;;;;;;;7.65;2.20;;;5.80;99.90;;;;;;5059346;28;20041;-78
2023/11/25 10:38:29;;;;;;;8.98;2.58;;;5.90;99.90;;;;;;5056727;28;20408;-77
2023/11/25 10:41:00;;;;;;;6.03;2.00;;;6.00;99.90;;;;;;5060096;28;20100;-79
2023/11/25 10:43:29;;;;;;;10.45;2.38;;;6.00;99.90;;;;;;5062692;28;20041;-80
2023/11/25 10:46:05;;;;;;;8.67;2.47;;;6.00;99.90;;;;;;5066298;28;20080;-79
2023/11/25 10:48:34;;;;;;;8.40;1.83;;;6.00;99.90;;;;;;5072103;28;20048;-82
2023/11/25 10:51:02;;;;;;;7.35;2.38;;;6.10;99.90;;;;;;5041112;22;20057;-80
2023/11/25 10:53:30;;;;;;;5.82;1.90;;;6.00;99.90;;;;;;5000496;28;20042;-80
2023/11/25 10:56:04;;;;;;;4.95;1.85;;;6.00;99.90;;;;;;5020981;28;20050;-82
2023/11/25 10:58:34;;;;;;;10.18;2.85;;;6.00;99.90;;;;;;5010152;28;20078;-83
2023/11/25 11:01:02;;;;;;;6.88;1.95;;;6.00;99.90;;;;;;5011728;28;20038;-80
2023/11/25 11:03:50;;;;;;;7.22;2.38;;;6.00;99.90;;;;;;5007566;28;20042;-81
2023/11/25 11:06:22;;;;;;;6.78;1.60;;;6.10;99.90;;;;;;5003240;28;20045;-84
2023/11/25 11:08:51;;;;;;;8.70;1.80;;;6.00;99.90;;;;;;5003772;28;20055;-83
2023/11/25 11:11:46;;;;;;;4.93;1.38;;;6.10;99.90;;;;;;5026787;28;20422;-81
2023/11/25 11:14:15;;;;;;;6.35;1.80;;;6.00;99.90;;;;;;5009070;28;20042;-81
2023/11/25 11:16:50;;;;;;;10.13;1.80;;;5.90;99.90;;;;;;5010613;28;20042;-79
2023/11/25 11:19:21;;;;;;;6.00;1.98;;;6.00;99.90;;;;;;5001836;28;20061;-80
2023/11/25 11:21:53;;;;;;;3.55;1.77;;;6.00;99.90;;;;;;5004073;28;20505;-78
2023/11/25 11:24:26;;;;;;;8.38;1.38;;;6.00;99.90;;;;;;5004967;28;20096;-79
2023/11/25 11:27:04;;;;;;;11.38;1.75;;;6.00;99.90;;;;;;5004699;28;20074;-77
2023/11/25 11:29:43;;;;;;;5.55;1.88;;;6.00;99.90;;;;;;5007988;28;20437;-78
2023/11/25 11:32:13;;;;;;;5.68;1.98;;;5.90;99.90;;;;;;5013183;28;20084;-78
2023/11/25 11:34:40;;;;;;;5.60;2.50;;;6.00;99.90;;;;;;5012694;28;20046;-77
2023/11/25 11:37:08;;;;;;;11.15;2.28;;;6.00;99.90;;;;;;5013048;28;20434;-78
2023/11/25 11:40:06;;;;;;;8.32;3.05;;;6.10;99.90;;;;;;5014323;28;20498;-79
2023/11/25 11:42:38;;;;;;;5.25;1.60;;;6.10;99.90;;;;;;5011833;28;20069;-79
2023/11/25 11:45:24;;;;;;;10.85;4.38;;;6.20;99.90;;;;;;5013849;28;20050;-79
2023/11/25 11:48:02;;;;;;;7.00;1.70;;;6.20;99.90;;;;;;5015512;28;20054;-79
2023/11/25 11:50:31;;;;;;;6.78;1.85;;;6.30;99.90;;;;;;5013427;28;20046;-79
2023/11/25 11:53:04;;;;;;;6.00;1.58;;;6.30;99.90;;;;;;5013615;28;20069;-79
2023/11/25 11:55:50;;;;;;;4.20;1.95;;;6.40;99.90;;;;;;5011962;28;20431;-79
2023/11/25 11:58:19;;;;;;;4.75;1.92;;;6.50;99.90;;;;;;5015412;28;20592;-79
2023/11/25 12:00:53;;;;;;;4.70;1.50;;;6.70;99.90;;;;;;5011630;28;20053;-78
2023/11/25 12:03:21;;;;;;;6.95;1.80;;;6.80;99.90;;;;;;5026473;28;20076;-79
2023/11/25 12:05:48;;;;;;;5.40;1.48;;;6.80;99.90;;;;;;5012373;28;20090;-79
2023/11/25 12:08:15;;;;;;;6.90;1.50;;;6.90;99.90;;;;;;5015287;28;20129;-79
2023/11/25 12:10:42;;;;;;;7.65;1.67;;;6.90;99.90;;;;;;5012155;28;20050;-80
2023/11/25 12:13:10;;;;;;;6.68;2.25;;;7.00;99.90;;;;;;5016550;28;20053;-79
2023/11/25 12:15:38;;;;;;;8.70;1.88;;;7.00;99.90;;;;;;5028006;28;20050;-79
2023/11/25 12:18:05;;;;;;;7.47;1.95;;;7.10;99.90;;;;;;5013139;28;20051;-79
2023/11/25 12:20:33;;;;;;;7.97;1.92;;;7.20;99.90;;;;;;5015563;28;20050;-79
2023/11/25 12:23:07;;;;;;;6.07;1.80;;;7.20;99.90;;;;;;5012396;28;20065;-78
2023/11/25 12:25:35;;;;;;;3.42;1.30;;;7.20;99.90;;;;;;5011105;28;20056;-79
2023/11/25 12:28:09;;;;;;;6.45;1.95;;;7.30;99.90;;;;;;5013258;28;20049;-79
2023/11/25 12:30:41;;;;;;;6.88;2.22;;;7.40;99.90;;;;;;5014416;28;20046;-79
2023/11/25 12:33:09;;;;;;;9.00;2.15;;;7.40;99.90;;;;;;5009893;28;20093;-79
2023/11/25 12:35:38;;;;;;;9.10;2.20;;;7.50;99.90;;;;;;5013251;28;20046;-78
2023/11/25 12:38:07;;;;;;;7.20;1.50;;;7.60;99.90;;;;;;5007253;28;20042;-79
2023/11/25 12:40:44;;;;;;;8.70;2.17;;;7.50;99.90;;;;;;5011375;28;20112;-79
2023/11/25 12:43:12;;;;;;;5.25;1.90;;;7.50;99.90;;;;;;5029051;28;20049;-79
2023/11/25 12:45:41;;;;;;;6.63;1.92;;;7.50;99.90;;;;;;5012325;28;20473;-79
2023/11/25 12:48:11;;;;;;;6.32;1.45;;;7.50;99.90;;;;;;5010907;28;20042;-79
2023/11/25 12:51:07;;;;;;;5.20;1.67;;;7.40;99.90;;;;;;5011528;28;20046;-79
2023/11/25 12:53:38;;;;;;;5.30;1.70;;;7.30;99.90;;;;;;5010112;28;20253;-79
2023/11/25 12:56:12;;;;;;;8.07;1.60;;;7.30;99.90;;;;;;5012946;28;20046;-79
2023/11/25 12:58:43;;;;;;;7.65;2.03;;;7.20;99.90;;;;;;5013638;28;20046;-79
2023/11/25 13:01:10;;;;;;;9.50;2.45;;;7.10;99.90;;;;;;5012212;28;20046;-78